Airfield :
LOGIN :

Register | Disclaimer

   EN    FR    IT 

 










Legend :    VFR   Marginal VFR   IFR   Intensive IFR   Very Intensive IFR
Visi :
Ceiling :
>= 8 km
>= 3000ft
5 to 8 km
1000 to 3000 ft
1500m to 5 km
500 to 1000 ft
800 to 1500m
200 to 500 ft
< 800m
< 200 ft
Symbols :   Thunderstorms  Fog  Heavy snow  Heavy precipitations  Wind > 20 kt
SIGMETs :     Misc.  Thunderstorms  Icing  Turbulence  Mountain Waves  Volcanic Ashes






- Airport Elevation : 74 ft
- IATA code : NDZ


ETMN - Cuxhaven Nordholz Sea AB

CURRENT METAR :
  • 221920Z 13011KT 6000 FEW002 OVC004 05/04 Q1008 YLO

EXPIRED METARs :
  • 221820Z 13012KT 3800 BR OVC002 05/05 Q1008 AMB
  • 221745Z 12009KT 3800 BR BKN002 05/04 Q1007 AMB
  • 221720Z 11009KT 4500 BR BKN003 BKN180 05/04 Q1007 YLO

TAF AMD TAF ETMN
Valid from the 22 at 12:00 until the 22 at 21:00 UTC


221520Z 2212/2221 15005KT 9999 NSW SCT040 BKN090
BECMG 2218/2220 15005KT 3000 BR BKN005
TEMPO 2220/2221 14005KT 2000 -DZ OVC002 CANCEL



MET'MAP, your aeronautical weather chart ! - Copyright ORBIFLY December 2007 - Disclaimer

ORBIFLY MET'MAP TEAM :

Programming & Development : Alexandra Zaïnal
Concept & Development : Baudouin d'Aumeries
Co-Development & Prog : Marc-Olivier Méhu
Technical & hardware support : Manuel Goepfert

Contact : metmap@orbifly.com




SOURCES & CREDITS :

   NOAA